Terminal Aerodrome Forecast
Issued by NWS Upton, NY

Home | Current Version | Previous Version | Text Only | Print | Product List | Glossary On
Versions: 1 2 3 4 5 6 7 8 9 10 11 12 13 14 15 16 17 18 19 20 21 22 23 24 25 26 27
620
FTUS41 KOKX 060840 AAA
TAFBDR
TAF AMD
KBDR 060840Z 0609/0706 31004KT P6SM SCT250
     FM061000 35004KT P6SM SCT250
     FM061400 05006KT P6SM BKN250
     FM061900 11007KT P6SM SCT040 BKN150
     FM070000 09007KT 5SM -RA BKN030 BKN100
     FM070200 08006KT 3SM -RA BR SCT012 OVC020
     FM070400 06004KT 2SM -RADZ BR SCT007 OVC012=

USA.gov is the U.S. government's official web portal to all federal, state and local government web resources and services.